BBC Orinoco — V2DM2 — position and weather

sailwx.info

Track history (hours):
 
Tides and Currents Weather Stations Pressure Air Temp Water Temp Dewpoint Dewpoint Depression Visibility Wind Speed Wind Dir Waves Ship Positions

BBC Orinoco

Last reported at 2015-May-04 15:09 UTC. Time now 2015-May-04 21:08 UTC.
Position N 56°36' E 011°42'.

Length 143 m; draft 10 m.

Type: Ship. MMSI: 305255000.

Date/timePositionNaut miles runAvg speedWind from/ knotsBaromVisibWave heightAir tempDewpointWater temp
2015-May-04 15:09N 56°36' E 011°42'812.6
2015-May-04 14:33N 56°43' E 011°49'1211.8
2015-May-04 13:33N 56°54' E 011°44'1313.0
2015-May-04 12:33N 57°07' E 011°37'1313.1
2015-May-04 11:33N 57°19' E 011°29'1212.4
2015-May-04 10:33N 57°30' E 011°18'1312.7
2015-May-04 09:33N 57°39' E 011°01'1212.1
2015-May-04 08:33N 57°47' E 010°43'19110.6
2015-May-03 14:33N 55°40' E 006°23'1211.9
2015-May-03 13:34N 55°29' E 006°14'1211.6
2015-May-03 12:31N 55°18' E 006°05'7011.7
2015-May-03 06:33N 54°17' E 005°08'1611.9
2015-May-03 05:15N 54°05' E 004°50'8910.9
2015-May-02 21:04N 52°54' E 003°20'7811.5
2015-May-02 14:16N 51°42' E 002°29'1013.4
2015-May-02 13:33N 51°34' E 002°21'1613.5
2015-May-02 12:24N 51°21' E 002°09'1213.2
2015-May-02 11:30N 51°12' E 001°56'1414.5
2015-May-02 10:34N 51°03' E 001°39'  
2015-Apr-29 07:05N 39°15' W 009°58'712.9
2015-Apr-29 06:33N 39°09' W 009°58'1313.0
2015-Apr-29 05:33N 38°55' W 009°58'1312.8
2015-Apr-29 04:33N 38°43' W 009°58'1212.6
2015-Apr-29 03:33N 38°30' W 009°55'1212.4
2015-Apr-29 02:33N 38°18' W 009°51'1812.5
2015-Apr-29 01:07N 38°01' W 009°46'1212.3
2015-Apr-29 00:11N 37°50' W 009°43'912.7
2015-Apr-28 23:31N 37°41' W 009°40'8011.3
2015-Apr-28 16:25N 36°34' W 008°45'1112.4
2015-Apr-28 15:32N 36°32' W 008°32'1312.7
2015-Apr-28 14:33N 36°29' W 008°16'13812.4
2015-Apr-28 03:24N 36°00' W 005°29'7 8.3
2015-Apr-28 02:34N 36°04' W 005°22'2 1.9
2015-Apr-28 01:34N 36°06' W 005°21'3 2.6
2015-Apr-28 00:31N 36°08' W 005°22'4 0.4
2015-Apr-27 12:33N 36°04' W 005°19'11412.6
2015-Apr-27 03:32N 36°20' W 002°60'1111.2
2015-Apr-27 02:33N 36°21' W 002°46'1010.3
2015-Apr-27 01:33N 36°23' W 002°33'1010.1
2015-Apr-27 00:33N 36°24' W 002°21'14612.0
2015-Apr-26 12:24N 36°46' E 000°39'1511.6
2015-Apr-26 11:07N 36°48' E 000°58'3612.2
2015-Apr-26 08:10N 36°53' E 001°42'1013.0
2015-Apr-26 07:26N 36°54' E 001°54'5012.9
2015-Apr-26 03:33N 37°02' E 002°56'2712.7
2015-Apr-26 01:27N 37°06' E 003°29'2812.7
2015-Apr-25 23:13N 37°10' E 004°04'18613.5
2015-Apr-25 09:27N 37°37' E 007°55'1614.1
2015-Apr-25 08:19N 37°39' E 008°15'13513.2
2015-Apr-24 22:06N 37°29' E 011°05'813.3
2015-Apr-24 21:31N 37°26' E 011°14'  
Track history (hours):
 
Tides and Currents Weather Stations Pressure Air Temp Water Temp Dewpoint Dewpoint Depression Visibility Wind Speed Wind Dir Waves Ship Positions

BBC Orinoco

Last reported at 2015-May-04 15:09 UTC. Time now 2015-May-04 21:08 UTC.
Position N 56°36' E 011°42'.

Length 143 m; draft 10 m.

Type: Ship. MMSI: 305255000.

Date/timePositionNaut miles runAvg speedWind from/ knotsBaromVisibWave heightAir tempDewpointWater temp
2015-May-04 15:09N 56°36' E 011°42'812.6
2015-May-04 14:33N 56°43' E 011°49'1211.8
2015-May-04 13:33N 56°54' E 011°44'1313.0
2015-May-04 12:33N 57°07' E 011°37'1313.1
2015-May-04 11:33N 57°19' E 011°29'1212.4
2015-May-04 10:33N 57°30' E 011°18'1312.7
2015-May-04 09:33N 57°39' E 011°01'1212.1
2015-May-04 08:33N 57°47' E 010°43'19110.6
2015-May-03 14:33N 55°40' E 006°23'1211.9
2015-May-03 13:34N 55°29' E 006°14'1211.6
2015-May-03 12:31N 55°18' E 006°05'7011.7
2015-May-03 06:33N 54°17' E 005°08'1611.9
2015-May-03 05:15N 54°05' E 004°50'8910.9
2015-May-02 21:04N 52°54' E 003°20'7811.5
2015-May-02 14:16N 51°42' E 002°29'1013.4
2015-May-02 13:33N 51°34' E 002°21'1613.5
2015-May-02 12:24N 51°21' E 002°09'1213.2
2015-May-02 11:30N 51°12' E 001°56'1414.5
2015-May-02 10:34N 51°03' E 001°39'  
2015-Apr-29 07:05N 39°15' W 009°58'712.9
2015-Apr-29 06:33N 39°09' W 009°58'1313.0
2015-Apr-29 05:33N 38°55' W 009°58'1312.8
2015-Apr-29 04:33N 38°43' W 009°58'1212.6
2015-Apr-29 03:33N 38°30' W 009°55'1212.4
2015-Apr-29 02:33N 38°18' W 009°51'1812.5
2015-Apr-29 01:07N 38°01' W 009°46'1212.3
2015-Apr-29 00:11N 37°50' W 009°43'912.7
2015-Apr-28 23:31N 37°41' W 009°40'8011.3
2015-Apr-28 16:25N 36°34' W 008°45'1112.4
2015-Apr-28 15:32N 36°32' W 008°32'1312.7
2015-Apr-28 14:33N 36°29' W 008°16'13812.4
2015-Apr-28 03:24N 36°00' W 005°29'7 8.3
2015-Apr-28 02:34N 36°04' W 005°22'2 1.9
2015-Apr-28 01:34N 36°06' W 005°21'3 2.6
2015-Apr-28 00:31N 36°08' W 005°22'4 0.4
2015-Apr-27 12:33N 36°04' W 005°19'11412.6
2015-Apr-27 03:32N 36°20' W 002°60'1111.2
2015-Apr-27 02:33N 36°21' W 002°46'1010.3
2015-Apr-27 01:33N 36°23' W 002°33'1010.1
2015-Apr-27 00:33N 36°24' W 002°21'14612.0
2015-Apr-26 12:24N 36°46' E 000°39'1511.6
2015-Apr-26 11:07N 36°48' E 000°58'3612.2
2015-Apr-26 08:10N 36°53' E 001°42'1013.0
2015-Apr-26 07:26N 36°54' E 001°54'5012.9
2015-Apr-26 03:33N 37°02' E 002°56'2712.7
2015-Apr-26 01:27N 37°06' E 003°29'2812.7
2015-Apr-25 23:13N 37°10' E 004°04'18613.5
2015-Apr-25 09:27N 37°37' E 007°55'1614.1
2015-Apr-25 08:19N 37°39' E 008°15'13513.2
2015-Apr-24 22:06N 37°29' E 011°05'813.3
2015-Apr-24 21:31N 37°26' E 011°14'  

Dump ship's entire track history